sensor_id;sensor_type;location;lat;lon;timestamp;pressure;altitude;pressure_sealevel;temperature;humidity
8320;BME280;4197;42.130;24.746;2022-10-22T00:01:17;100485.25;;;6.92;100.00
8320;BME280;4197;42.130;24.746;2022-10-22T00:03:45;100480.47;;;6.89;100.00
8320;BME280;4197;42.130;24.746;2022-10-22T00:06:14;100478.09;;;6.87;100.00
8320;BME280;4197;42.130;24.746;2022-10-22T00:08:42;100477.50;;;6.90;100.00
8320;BME280;4197;42.130;24.746;2022-10-22T00:11:11;100472.38;;;6.89;100.00
8320;BME280;4197;42.130;24.746;2022-10-22T00:13:40;100469.88;;;6.92;100.00
8320;BME280;4197;42.130;24.746;2022-10-22T00:16:10;100465.09;;;6.89;100.00
8320;BME280;4197;42.130;24.746;2022-10-22T00:18:39;100459.91;;;6.93;100.00
8320;BME280;4197;42.130;24.746;2022-10-22T00:21:07;100460.81;;;6.88;100.00
8320;BME280;4197;42.130;24.746;2022-10-22T00:23:39;100453.00;;;6.87;100.00
8320;BME280;4197;42.130;24.746;2022-10-22T00:26:07;100449.78;;;6.76;100.00
8320;BME280;4197;42.130;24.746;2022-10-22T00:28:35;100445.38;;;6.66;100.00
8320;BME280;4197;42.130;24.746;2022-10-22T00:31:04;100443.81;;;6.65;100.00
8320;BME280;4197;42.130;24.746;2022-10-22T00:33:34;100440.91;;;6.62;100.00
8320;BME280;4197;42.130;24.746;2022-10-22T00:36:02;100442.91;;;6.56;100.00
8320;BME280;4197;42.130;24.746;2022-10-22T00:38:30;100445.31;;;6.58;100.00
8320;BME280;4197;42.130;24.746;2022-10-22T00:40:58;100444.41;;;6.62;100.00
8320;BME280;4197;42.130;24.746;2022-10-22T00:43:27;100438.03;;;6.58;100.00
8320;BME280;4197;42.130;24.746;2022-10-22T00:45:55;100438.81;;;6.59;100.00
8320;BME280;4197;42.130;24.746;2022-10-22T00:48:26;100434.63;;;6.53;100.00
8320;BME280;4197;42.130;24.746;2022-10-22T00:50:59;100426.06;;;6.51;100.00
8320;BME280;4197;42.130;24.746;2022-10-22T00:53:31;100431.16;;;6.52;100.00
8320;BME280;4197;42.130;24.746;2022-10-22T00:56:02;100430.97;;;6.48;100.00
8320;BME280;4197;42.130;24.746;2022-10-22T00:58:34;100426.66;;;6.47;100.00
8320;BME280;4197;42.130;24.746;2022-10-22T01:01:04;100429.75;;;6.55;100.00
8320;BME280;4197;42.130;24.746;2022-10-22T01:03:33;100428.81;;;6.59;100.00
8320;BME280;4197;42.130;24.746;2022-10-22T01:06:04;100437.91;;;6.63;100.00
8320;BME280;4197;42.130;24.746;2022-10-22T01:08:40;100435.72;;;6.65;100.00
8320;BME280;4197;42.130;24.746;2022-10-22T01:11:14;100443.19;;;6.68;100.00
8320;BME280;4197;42.130;24.746;2022-10-22T01:13:54;100435.94;;;6.55;100.00
8320;BME280;4197;42.130;24.746;2022-10-22T01:16:30;100420.56;;;6.56;100.00
8320;BME280;4197;42.130;24.746;2022-10-22T01:19:19;100422.47;;;6.55;100.00
8320;BME280;4197;42.130;24.746;2022-10-22T01:21:57;100425.66;;;6.57;100.00
8320;BME280;4197;42.130;24.746;2022-10-22T01:24:37;100417.00;;;6.46;100.00
8320;BME280;4197;42.130;24.746;2022-10-22T01:27:18;100410.59;;;6.42;100.00
8320;BME280;4197;42.130;24.746;2022-10-22T01:29:52;100410.41;;;6.39;100.00
8320;BME280;4197;42.130;24.746;2022-10-22T01:32:26;100418.31;;;6.35;100.00
8320;BME280;4197;42.130;24.746;2022-10-22T01:34:59;100418.59;;;6.34;100.00
8320;BME280;4197;42.130;24.746;2022-10-22T01:37:31;100415.41;;;6.32;100.00
8320;BME280;4197;42.130;24.746;2022-10-22T01:40:01;100423.19;;;6.33;100.00
8320;BME280;4197;42.130;24.746;2022-10-22T01:42:29;100413.91;;;6.25;100.00
8320;BME280;4197;42.130;24.746;2022-10-22T01:44:59;100423.38;;;6.23;100.00
8320;BME280;4197;42.130;24.746;2022-10-22T01:47:37;100421.81;;;6.22;100.00
8320;BME280;4197;42.130;24.746;2022-10-22T01:50:26;100418.78;;;6.23;100.00
8320;BME280;4197;42.130;24.746;2022-10-22T01:53:08;100408.53;;;6.25;100.00
8320;BME280;4197;42.130;24.746;2022-10-22T01:55:47;100413.53;;;6.18;100.00
8320;BME280;4197;42.130;24.746;2022-10-22T01:58:27;100410.84;;;6.18;100.00
8320;BME280;4197;42.130;24.746;2022-10-22T02:01:09;100418.00;;;6.23;100.00
8320;BME280;4197;42.130;24.746;2022-10-22T02:03:44;100415.03;;;6.24;100.00
8320;BME280;4197;42.130;24.746;2022-10-22T02:06:18;100418.72;;;6.15;100.00
8320;BME280;4197;42.130;24.746;2022-10-22T02:08:48;100420.41;;;6.11;100.00
8320;BME280;4197;42.130;24.746;2022-10-22T02:11:17;100415.53;;;6.13;100.00
8320;BME280;4197;42.130;24.746;2022-10-22T02:13:48;100418.84;;;6.10;100.00
8320;BME280;4197;42.130;24.746;2022-10-22T02:16:24;100420.50;;;6.06;100.00
8320;BME280;4197;42.130;24.746;2022-10-22T02:18:55;100424.59;;;6.03;100.00
8320;BME280;4197;42.130;24.746;2022-10-22T02:21:26;100419.81;;;6.00;100.00
8320;BME280;4197;42.130;24.746;2022-10-22T02:23:55;100422.50;;;6.00;100.00
8320;BME280;4197;42.130;24.746;2022-10-22T02:26:32;100420.94;;;5.99;100.00
8320;BME280;4197;42.130;24.746;2022-10-22T02:29:05;100428.84;;;5.90;100.00
8320;BME280;4197;42.130;24.746;2022-10-22T02:31:42;100425.97;;;5.87;100.00
8320;BME280;4197;42.130;24.746;2022-10-22T02:34:22;100424.56;;;5.89;100.00
8320;BME280;4197;42.130;24.746;2022-10-22T02:36:57;100412.81;;;5.85;100.00
8320;BME280;4197;42.130;24.746;2022-10-22T02:39:27;100420.19;;;5.79;100.00
8320;BME280;4197;42.130;24.746;2022-10-22T02:41:56;100415.09;;;5.78;100.00
8320;BME280;4197;42.130;24.746;2022-10-22T02:44:25;100418.66;;;5.73;100.00
8320;BME280;4197;42.130;24.746;2022-10-22T02:46:54;100422.47;;;5.72;100.00
8320;BME280;4197;42.130;24.746;2022-10-22T02:49:22;100418.34;;;5.61;100.00
8320;BME280;4197;42.130;24.746;2022-10-22T02:51:51;100418.53;;;5.51;100.00
8320;BME280;4197;42.130;24.746;2022-10-22T02:54:19;100421.81;;;5.48;100.00
8320;BME280;4197;42.130;24.746;2022-10-22T02:56:47;100426.19;;;5.44;100.00
8320;BME280;4197;42.130;24.746;2022-10-22T02:59:15;100426.19;;;5.44;100.00
8320;BME280;4197;42.130;24.746;2022-10-22T03:01:43;100420.31;;;5.42;100.00
8320;BME280;4197;42.130;24.746;2022-10-22T03:04:14;100398.28;;;5.40;100.00
8320;BME280;4197;42.130;24.746;2022-10-22T03:06:42;100417.69;;;5.36;100.00
8320;BME280;4197;42.130;24.746;2022-10-22T03:09:11;100422.28;;;5.36;100.00
8320;BME280;4197;42.130;24.746;2022-10-22T03:11:39;100423.59;;;5.39;100.00
8320;BME280;4197;42.130;24.746;2022-10-22T03:14:07;100424.19;;;5.35;100.00
8320;BME280;4197;42.130;24.746;2022-10-22T03:16:35;100425.78;;;5.36;100.00
8320;BME280;4197;42.130;24.746;2022-10-22T03:19:03;100414.72;;;5.38;100.00
8320;BME280;4197;42.130;24.746;2022-10-22T03:21:37;100419.81;;;5.40;100.00
8320;BME280;4197;42.130;24.746;2022-10-22T03:24:15;100411.66;;;5.45;100.00
8320;BME280;4197;42.130;24.746;2022-10-22T03:26:44;100415.00;;;5.36;100.00
8320;BME280;4197;42.130;24.746;2022-10-22T03:29:14;100410.22;;;5.33;100.00
8320;BME280;4197;42.130;24.746;2022-10-22T03:31:43;100403.50;;;5.50;100.00
8320;BME280;4197;42.130;24.746;2022-10-22T03:34:11;100408.53;;;5.37;100.00
8320;BME280;4197;42.130;24.746;2022-10-22T03:36:42;100408.41;;;5.29;100.00
8320;BME280;4197;42.130;24.746;2022-10-22T03:39:12;100395.56;;;5.26;100.00
8320;BME280;4197;42.130;24.746;2022-10-22T03:41:41;100400.66;;;5.27;100.00
8320;BME280;4197;42.130;24.746;2022-10-22T03:44:10;100399.63;;;5.23;100.00
8320;BME280;4197;42.130;24.746;2022-10-22T03:46:39;100405.84;;;5.24;100.00
8320;BME280;4197;42.130;24.746;2022-10-22T03:49:07;100399.94;;;5.22;100.00
8320;BME280;4197;42.130;24.746;2022-10-22T03:51:35;100402.13;;;5.20;100.00
8320;BME280;4197;42.130;24.746;2022-10-22T03:54:05;100406.72;;;5.19;100.00
8320;BME280;4197;42.130;24.746;2022-10-22T03:56:33;100409.09;;;5.21;100.00
8320;BME280;4197;42.130;24.746;2022-10-22T03:59:01;100411.22;;;5.24;100.00
8320;BME280;4197;42.130;24.746;2022-10-22T04:01:30;100402.41;;;5.18;100.00
8320;BME280;4197;42.130;24.746;2022-10-22T04:03:58;100407.56;;;5.14;100.00
8320;BME280;4197;42.130;24.746;2022-10-22T04:06:28;100416.75;;;5.13;100.00
8320;BME280;4197;42.130;24.746;2022-10-22T04:08:57;100414.06;;;5.13;100.00
8320;BME280;4197;42.130;24.746;2022-10-22T04:11:28;100412.66;;;5.16;100.00
8320;BME280;4197;42.130;24.746;2022-10-22T04:13:56;100417.75;;;5.18;100.00
8320;BME280;4197;42.130;24.746;2022-10-22T04:16:24;100408.28;;;5.20;100.00
8320;BME280;4197;42.130;24.746;2022-10-22T04:18:56;100414.25;;;5.17;100.00
8320;BME280;4197;42.130;24.746;2022-10-22T04:21:25;100422.25;;;5.22;100.00
8320;BME280;4197;42.130;24.746;2022-10-22T04:23:53;100425.00;;;5.17;100.00
8320;BME280;4197;42.130;24.746;2022-10-22T04:26:21;100420.16;;;5.19;100.00
8320;BME280;4197;42.130;24.746;2022-10-22T04:28:51;100423.72;;;5.14;100.00
8320;BME280;4197;42.130;24.746;2022-10-22T04:31:22;100421.22;;;5.18;100.00
8320;BME280;4197;42.130;24.746;2022-10-22T04:33:53;100429.53;;;5.22;100.00
8320;BME280;4197;42.130;24.746;2022-10-22T04:36:22;100429.44;;;5.27;100.00
8320;BME280;4197;42.130;24.746;2022-10-22T04:38:53;100426.59;;;5.18;100.00
8320;BME280;4197;42.130;24.746;2022-10-22T04:41:24;100430.47;;;5.12;100.00
8320;BME280;4197;42.130;24.746;2022-10-22T04:43:55;100430.19;;;5.13;100.00
8320;BME280;4197;42.130;24.746;2022-10-22T04:46:24;100423.44;;;5.16;100.00
8320;BME280;4197;42.130;24.746;2022-10-22T04:48:53;100423.13;;;5.18;100.00
8320;BME280;4197;42.130;24.746;2022-10-22T04:51:23;100412.38;;;5.18;100.00
8320;BME280;4197;42.130;24.746;2022-10-22T04:53:52;100411.97;;;5.10;100.00
8320;BME280;4197;42.130;24.746;2022-10-22T04:56:22;100414.41;;;5.07;100.00
8320;BME280;4197;42.130;24.746;2022-10-22T04:58:55;100406.28;;;5.12;100.00
8320;BME280;4197;42.130;24.746;2022-10-22T05:01:26;100408.59;;;5.19;100.00
8320;BME280;4197;42.130;24.746;2022-10-22T05:03:57;100399.59;;;5.09;100.00
8320;BME280;4197;42.130;24.746;2022-10-22T05:06:28;100395.59;;;5.07;100.00
8320;BME280;4197;42.130;24.746;2022-10-22T05:08:58;100402.06;;;5.06;100.00
8320;BME280;4197;42.130;24.746;2022-10-22T05:11:29;100390.06;;;5.17;100.00
8320;BME280;4197;42.130;24.746;2022-10-22T05:14:02;100391.97;;;5.17;100.00
8320;BME280;4197;42.130;24.746;2022-10-22T05:16:31;100395.22;;;5.13;100.00
8320;BME280;4197;42.130;24.746;2022-10-22T05:19:00;100389.06;;;5.13;100.00
8320;BME280;4197;42.130;24.746;2022-10-22T05:21:30;100388.00;;;5.28;100.00
8320;BME280;4197;42.130;24.746;2022-10-22T05:23:59;100397.06;;;5.32;100.00
8320;BME280;4197;42.130;24.746;2022-10-22T05:26:28;100399.28;;;5.30;100.00
8320;BME280;4197;42.130;24.746;2022-10-22T05:28:56;100399.72;;;5.18;100.00
8320;BME280;4197;42.130;24.746;2022-10-22T05:31:28;100406.13;;;5.22;100.00
8320;BME280;4197;42.130;24.746;2022-10-22T05:33:56;100406.91;;;5.23;100.00
8320;BME280;4197;42.130;24.746;2022-10-22T05:36:24;100408.22;;;5.25;100.00
8320;BME280;4197;42.130;24.746;2022-10-22T05:38:53;100410.66;;;5.41;100.00
8320;BME280;4197;42.130;24.746;2022-10-22T05:41:23;100406.47;;;5.48;100.00
8320;BME280;4197;42.130;24.746;2022-10-22T05:43:54;100398.50;;;5.57;100.00
8320;BME280;4197;42.130;24.746;2022-10-22T05:46:27;100402.41;;;5.65;100.00
8320;BME280;4197;42.130;24.746;2022-10-22T05:48:56;100398.34;;;5.81;100.00
8320;BME280;4197;42.130;24.746;2022-10-22T05:51:26;100398.38;;;5.95;100.00
8320;BME280;4197;42.130;24.746;2022-10-22T05:53:57;100393.69;;;6.00;100.00
8320;BME280;4197;42.130;24.746;2022-10-22T05:56:27;100395.88;;;6.12;100.00
8320;BME280;4197;42.130;24.746;2022-10-22T05:58:57;100399.47;;;6.21;100.00
8320;BME280;4197;42.130;24.746;2022-10-22T06:01:33;100395.03;;;6.39;100.00
8320;BME280;4197;42.130;24.746;2022-10-22T06:04:04;100404.56;;;6.59;100.00
8320;BME280;4197;42.130;24.746;2022-10-22T06:06:34;100399.84;;;6.65;100.00
8320;BME280;4197;42.130;24.746;2022-10-22T06:09:04;100400.47;;;6.62;100.00
8320;BME280;4197;42.130;24.746;2022-10-22T06:11:33;100401.28;;;6.62;100.00
8320;BME280;4197;42.130;24.746;2022-10-22T06:14:02;100394.25;;;6.75;100.00
8320;BME280;4197;42.130;24.746;2022-10-22T06:16:33;100392.47;;;6.70;100.00
8320;BME280;4197;42.130;24.746;2022-10-22T06:19:01;100385.47;;;6.69;100.00
8320;BME280;4197;42.130;24.746;2022-10-22T06:21:30;100384.25;;;6.76;100.00
8320;BME280;4197;42.130;24.746;2022-10-22T06:23:59;100390.03;;;6.83;100.00
8320;BME280;4197;42.130;24.746;2022-10-22T06:26:29;100399.97;;;6.96;100.00
8320;BME280;4197;42.130;24.746;2022-10-22T06:28:57;100395.31;;;7.10;100.00
8320;BME280;4197;42.130;24.746;2022-10-22T06:31:26;100403.00;;;7.26;100.00
8320;BME280;4197;42.130;24.746;2022-10-22T06:33:56;100401.22;;;7.44;100.00
8320;BME280;4197;42.130;24.746;2022-10-22T06:36:24;100400.53;;;7.60;100.00
8320;BME280;4197;42.130;24.746;2022-10-22T06:38:54;100402.38;;;7.82;100.00
8320;BME280;4197;42.130;24.746;2022-10-22T06:41:22;100408.81;;;8.13;100.00
8320;BME280;4197;42.130;24.746;2022-10-22T06:43:55;100418.38;;;8.19;100.00
8320;BME280;4197;42.130;24.746;2022-10-22T06:46:25;100412.41;;;8.39;100.00
8320;BME280;4197;42.130;24.746;2022-10-22T06:48:55;100411.16;;;8.45;100.00
8320;BME280;4197;42.130;24.746;2022-10-22T06:51:26;100412.75;;;8.64;100.00
8320;BME280;4197;42.130;24.746;2022-10-22T06:53:56;100420.41;;;8.70;100.00
8320;BME280;4197;42.130;24.746;2022-10-22T06:56:25;100421.03;;;8.93;100.00
8320;BME280;4197;42.130;24.746;2022-10-22T06:58:56;100429.00;;;8.90;100.00
8320;BME280;4197;42.130;24.746;2022-10-22T07:01:26;100437.28;;;8.93;100.00
8320;BME280;4197;42.130;24.746;2022-10-22T07:03:56;100450.66;;;8.99;100.00
8320;BME280;4197;42.130;24.746;2022-10-22T07:06:27;100445.84;;;9.13;100.00
8320;BME280;4197;42.130;24.746;2022-10-22T07:08:58;100434.25;;;9.12;99.79
8320;BME280;4197;42.130;24.746;2022-10-22T07:11:36;100443.78;;;9.27;99.57
8320;BME280;4197;42.130;24.746;2022-10-22T07:14:06;100439.28;;;9.49;98.46
8320;BME280;4197;42.130;24.746;2022-10-22T07:16:34;100428.22;;;9.71;96.87
8320;BME280;4197;42.130;24.746;2022-10-22T07:19:04;100432.91;;;9.92;95.63
8320;BME280;4197;42.130;24.746;2022-10-22T07:21:34;100430.06;;;9.88;95.40
8320;BME280;4197;42.130;24.746;2022-10-22T07:24:03;100426.94;;;9.77;96.80
8320;BME280;4197;42.130;24.746;2022-10-22T07:26:33;100429.81;;;9.72;97.74
8320;BME280;4197;42.130;24.746;2022-10-22T07:29:03;100421.03;;;9.75;97.84
8320;BME280;4197;42.130;24.746;2022-10-22T07:31:31;100420.25;;;9.75;99.08
8320;BME280;4197;42.130;24.746;2022-10-22T07:34:00;100425.63;;;9.83;98.27
8320;BME280;4197;42.130;24.746;2022-10-22T07:36:28;100414.44;;;9.94;97.24
8320;BME280;4197;42.130;24.746;2022-10-22T07:38:59;100418.66;;;10.12;97.25
8320;BME280;4197;42.130;24.746;2022-10-22T07:41:28;100413.97;;;10.21;96.33
8320;BME280;4197;42.130;24.746;2022-10-22T07:43:57;100423.16;;;10.38;94.84
8320;BME280;4197;42.130;24.746;2022-10-22T07:46:25;100422.63;;;10.44;94.76
8320;BME280;4197;42.130;24.746;2022-10-22T07:48:54;100419.53;;;10.34;95.13
8320;BME280;4197;42.130;24.746;2022-10-22T07:51:22;100432.19;;;10.51;94.86
8320;BME280;4197;42.130;24.746;2022-10-22T07:53:50;100426.28;;;10.48;95.01
8320;BME280;4197;42.130;24.746;2022-10-22T07:56:20;100428.28;;;10.60;94.95
8320;BME280;4197;42.130;24.746;2022-10-22T07:58:49;100417.13;;;10.62;94.33
8320;BME280;4197;42.130;24.746;2022-10-22T08:01:17;100414.94;;;10.76;93.62
8320;BME280;4197;42.130;24.746;2022-10-22T08:03:46;100415.59;;;10.73;93.28
8320;BME280;4197;42.130;24.746;2022-10-22T08:06:18;100418.44;;;10.77;93.44
8320;BME280;4197;42.130;24.746;2022-10-22T08:08:48;100417.19;;;10.95;92.78
8320;BME280;4197;42.130;24.746;2022-10-22T08:11:16;100410.41;;;11.01;91.75
8320;BME280;4197;42.130;24.746;2022-10-22T08:13:46;100406.81;;;11.09;90.48
8320;BME280;4197;42.130;24.746;2022-10-22T08:16:20;100412.28;;;11.22;90.72
8320;BME280;4197;42.130;24.746;2022-10-22T08:18:50;100417.31;;;11.32;90.36
8320;BME280;4197;42.130;24.746;2022-10-22T08:21:25;100412.78;;;11.36;88.86
8320;BME280;4197;42.130;24.746;2022-10-22T08:24:08;100415.38;;;11.32;88.27
8320;BME280;4197;42.130;24.746;2022-10-22T08:26:41;100407.03;;;11.50;88.49
8320;BME280;4197;42.130;24.746;2022-10-22T08:29:16;100406.47;;;11.44;88.01
8320;BME280;4197;42.130;24.746;2022-10-22T08:31:54;100410.47;;;11.59;87.60
8320;BME280;4197;42.130;24.746;2022-10-22T08:34:33;100414.50;;;11.86;85.91
8320;BME280;4197;42.130;24.746;2022-10-22T08:37:27;100410.22;;;11.97;84.35
8320;BME280;4197;42.130;24.746;2022-10-22T08:40:03;100408.16;;;12.07;84.66
8320;BME280;4197;42.130;24.746;2022-10-22T08:42:58;100404.88;;;12.01;85.09
8320;BME280;4197;42.130;24.746;2022-10-22T08:49:03;100406.69;;;12.34;84.16
8320;BME280;4197;42.130;24.746;2022-10-22T08:51:34;100398.16;;;12.35;83.97
8320;BME280;4197;42.130;24.746;2022-10-22T08:54:16;100393.69;;;12.55;82.64
8320;BME280;4197;42.130;24.746;2022-10-22T08:56:54;100385.97;;;12.69;81.60
8320;BME280;4197;42.130;24.746;2022-10-22T08:59:30;100382.97;;;12.75;81.59
8320;BME280;4197;42.130;24.746;2022-10-22T09:02:07;100381.31;;;12.70;82.02
8320;BME280;4197;42.130;24.746;2022-10-22T09:04:49;100376.31;;;12.72;82.08
8320;BME280;4197;42.130;24.746;2022-10-22T09:07:24;100373.41;;;12.93;80.23
8320;BME280;4197;42.130;24.746;2022-10-22T09:09:53;100364.00;;;12.90;81.23
8320;BME280;4197;42.130;24.746;2022-10-22T09:12:24;100363.97;;;13.18;79.10
8320;BME280;4197;42.130;24.746;2022-10-22T09:14:54;100363.84;;;13.27;79.66
8320;BME280;4197;42.130;24.746;2022-10-22T09:17:28;100363.94;;;13.47;78.26
8320;BME280;4197;42.130;24.746;2022-10-22T09:20:05;100358.50;;;13.63;77.03
8320;BME280;4197;42.130;24.746;2022-10-22T09:22:39;100360.50;;;13.97;75.05
8320;BME280;4197;42.130;24.746;2022-10-22T09:25:22;100342.72;;;14.03;75.44
8320;BME280;4197;42.130;24.746;2022-10-22T09:27:53;100347.00;;;14.20;73.88
8320;BME280;4197;42.130;24.746;2022-10-22T09:30:26;100342.72;;;14.39;73.32
8320;BME280;4197;42.130;24.746;2022-10-22T09:33:00;100339.66;;;14.60;72.34
8320;BME280;4197;42.130;24.746;2022-10-22T09:35:32;100354.41;;;14.75;66.18
8320;BME280;4197;42.130;24.746;2022-10-22T09:38:06;100351.22;;;14.72;65.19
8320;BME280;4197;42.130;24.746;2022-10-22T09:40:42;100349.13;;;14.85;64.05
8320;BME280;4197;42.130;24.746;2022-10-22T09:43:12;100344.19;;;14.91;63.19
8320;BME280;4197;42.130;24.746;2022-10-22T09:45:42;100334.53;;;14.97;63.29
8320;BME280;4197;42.130;24.746;2022-10-22T09:48:17;100329.09;;;15.20;61.18
8320;BME280;4197;42.130;24.746;2022-10-22T09:50:49;100324.50;;;15.24;60.36
8320;BME280;4197;42.130;24.746;2022-10-22T09:53:25;100319.38;;;15.23;60.34
8320;BME280;4197;42.130;24.746;2022-10-22T09:55:56;100302.81;;;15.12;60.50
8320;BME280;4197;42.130;24.746;2022-10-22T09:58:25;100298.50;;;15.11;60.35
8320;BME280;4197;42.130;24.746;2022-10-22T10:00:57;100297.03;;;14.94;61.08
8320;BME280;4197;42.130;24.746;2022-10-22T10:03:28;100296.16;;;14.90;60.29
8320;BME280;4197;42.130;24.746;2022-10-22T10:06:00;100288.94;;;14.78;61.19
8320;BME280;4197;42.130;24.746;2022-10-22T10:08:32;100293.22;;;14.79;61.06
8320;BME280;4197;42.130;24.746;2022-10-22T10:11:05;100291.22;;;14.76;61.08
8320;BME280;4197;42.130;24.746;2022-10-22T10:13:44;100277.34;;;14.85;60.42
8320;BME280;4197;42.130;24.746;2022-10-22T10:16:25;100280.28;;;14.95;59.95
8320;BME280;4197;42.130;24.746;2022-10-22T10:19:06;100281.59;;;14.82;60.60
8320;BME280;4197;42.130;24.746;2022-10-22T10:21:46;100275.19;;;14.94;59.88
8320;BME280;4197;42.130;24.746;2022-10-22T10:24:22;100265.16;;;15.02;59.81
8320;BME280;4197;42.130;24.746;2022-10-22T10:26:59;100267.69;;;15.10;59.42
8320;BME280;4197;42.130;24.746;2022-10-22T10:29:41;100262.22;;;15.10;60.24
8320;BME280;4197;42.130;24.746;2022-10-22T10:32:26;100260.63;;;15.09;59.20
8320;BME280;4197;42.130;24.746;2022-10-22T10:35:05;100263.78;;;15.11;59.48
8320;BME280;4197;42.130;24.746;2022-10-22T10:37:45;100248.78;;;15.25;59.40
8320;BME280;4197;42.130;24.746;2022-10-22T10:40:23;100237.50;;;15.53;59.22
8320;BME280;4197;42.130;24.746;2022-10-22T10:42:57;100237.16;;;15.81;58.46
8320;BME280;4197;42.130;24.746;2022-10-22T10:45:32;100231.91;;;15.69;56.74
8320;BME280;4197;42.130;24.746;2022-10-22T10:48:18;100228.72;;;15.67;56.34
8320;BME280;4197;42.130;24.746;2022-10-22T10:50:57;100215.41;;;15.65;56.77
8320;BME280;4197;42.130;24.746;2022-10-22T10:53:40;100212.22;;;15.86;56.41
8320;BME280;4197;42.130;24.746;2022-10-22T10:56:29;100202.94;;;15.94;55.99
8320;BME280;4197;42.130;24.746;2022-10-22T10:59:12;100201.81;;;15.99;55.51
8320;BME280;4197;42.130;24.746;2022-10-22T11:01:52;100201.00;;;15.95;55.55
8320;BME280;4197;42.130;24.746;2022-10-22T11:04:39;100191.75;;;16.06;55.03
8320;BME280;4197;42.130;24.746;2022-10-22T11:07:14;100191.72;;;16.03;54.76
8320;BME280;4197;42.130;24.746;2022-10-22T11:10:03;100191.22;;;15.94;55.33
8320;BME280;4197;42.130;24.746;2022-10-22T11:12:40;100188.53;;;15.97;54.71
8320;BME280;4197;42.130;24.746;2022-10-22T11:15:21;100167.53;;;16.05;54.24
8320;BME280;4197;42.130;24.746;2022-10-22T11:17:53;100171.09;;;16.13;54.00
8320;BME280;4197;42.130;24.746;2022-10-22T11:20:27;100154.75;;;16.16;54.40
8320;BME280;4197;42.130;24.746;2022-10-22T11:23:04;100145.91;;;16.30;55.05
8320;BME280;4197;42.130;24.746;2022-10-22T11:25:50;100148.34;;;16.42;53.61
8320;BME280;4197;42.130;24.746;2022-10-22T11:28:21;100150.13;;;16.24;52.97
8320;BME280;4197;42.130;24.746;2022-10-22T11:30:56;100145.16;;;16.33;52.98
8320;BME280;4197;42.130;24.746;2022-10-22T11:33:35;100140.63;;;16.51;51.75
8320;BME280;4197;42.130;24.746;2022-10-22T11:36:07;100137.97;;;16.62;50.98
8320;BME280;4197;42.130;24.746;2022-10-22T11:38:42;100131.34;;;16.63;50.87
8320;BME280;4197;42.130;24.746;2022-10-22T11:41:18;100136.50;;;16.68;50.19
8320;BME280;4197;42.130;24.746;2022-10-22T11:44:00;100130.47;;;16.97;49.44
8320;BME280;4197;42.130;24.746;2022-10-22T11:46:43;100118.50;;;17.19;48.48
8320;BME280;4197;42.130;24.746;2022-10-22T11:49:21;100124.53;;;17.50;47.53
8320;BME280;4197;42.130;24.746;2022-10-22T11:52:21;100110.03;;;17.53;47.66
8320;BME280;4197;42.130;24.746;2022-10-22T11:54:53;100110.06;;;17.56;47.63
8320;BME280;4197;42.130;24.746;2022-10-22T11:57:29;100106.16;;;17.61;46.82
8320;BME280;4197;42.130;24.746;2022-10-22T12:00:09;100104.59;;;17.60;47.30
8320;BME280;4197;42.130;24.746;2022-10-22T12:02:42;100104.59;;;17.60;47.18
8320;BME280;4197;42.130;24.746;2022-10-22T12:05:42;100102.28;;;17.66;46.98
8320;BME280;4197;42.130;24.746;2022-10-22T12:08:19;100100.03;;;17.82;46.52
8320;BME280;4197;42.130;24.746;2022-10-22T12:11:27;100095.78;;;18.20;45.21
8320;BME280;4197;42.130;24.746;2022-10-22T12:14:23;100087.53;;;18.20;45.08
8320;BME280;4197;42.130;24.746;2022-10-22T12:16:57;100075.81;;;18.31;45.17
8320;BME280;4197;42.130;24.746;2022-10-22T12:19:29;100066.41;;;18.39;46.08
8320;BME280;4197;42.130;24.746;2022-10-22T12:22:01;100071.88;;;18.57;45.20
8320;BME280;4197;42.130;24.746;2022-10-22T12:24:39;100075.81;;;18.63;44.25
8320;BME280;4197;42.130;24.746;2022-10-22T12:27:19;100065.63;;;18.78;44.04
8320;BME280;4197;42.130;24.746;2022-10-22T12:29:56;100060.13;;;18.63;43.94
8320;BME280;4197;42.130;24.746;2022-10-22T12:32:32;100066.78;;;18.66;43.94
8320;BME280;4197;42.130;24.746;2022-10-22T12:35:04;100067.59;;;18.52;44.11
8320;BME280;4197;42.130;24.746;2022-10-22T12:37:34;100063.25;;;18.47;44.88
8320;BME280;4197;42.130;24.746;2022-10-22T12:40:15;100056.22;;;18.57;44.16
8320;BME280;4197;42.130;24.746;2022-10-22T12:42:48;100049.91;;;18.53;44.71
8320;BME280;4197;42.130;24.746;2022-10-22T12:45:18;100046.41;;;18.49;44.56
8320;BME280;4197;42.130;24.746;2022-10-22T12:47:47;100041.69;;;18.46;44.41
8320;BME280;4197;42.130;24.746;2022-10-22T12:50:19;100037.38;;;18.52;45.66
8320;BME280;4197;42.130;24.746;2022-10-22T12:52:48;100039.72;;;18.50;43.43
8320;BME280;4197;42.130;24.746;2022-10-22T12:55:17;100037.38;;;18.48;43.56
8320;BME280;4197;42.130;24.746;2022-10-22T12:57:47;100028.75;;;18.46;43.50
8320;BME280;4197;42.130;24.746;2022-10-22T13:00:26;100034.22;;;18.25;44.06
8320;BME280;4197;42.130;24.746;2022-10-22T13:02:57;100027.97;;;18.24;43.90
8320;BME280;4197;42.130;24.746;2022-10-22T13:05:30;100029.53;;;18.18;43.47
8320;BME280;4197;42.130;24.746;2022-10-22T13:08:08;100030.31;;;18.30;43.20
8320;BME280;4197;42.130;24.746;2022-10-22T13:10:38;100038.56;;;18.30;43.09
8320;BME280;4197;42.130;24.746;2022-10-22T13:13:32;100032.28;;;18.43;42.98
8320;BME280;4197;42.130;24.746;2022-10-22T13:16:18;100030.69;;;18.53;42.93
8320;BME280;4197;42.130;24.746;2022-10-22T13:18:47;100028.31;;;18.69;42.39
8320;BME280;4197;42.130;24.746;2022-10-22T13:21:24;100026.38;;;18.66;41.88
8320;BME280;4197;42.130;24.746;2022-10-22T13:23:55;100033.03;;;18.58;42.80
8320;BME280;4197;42.130;24.746;2022-10-22T13:26:29;100031.88;;;18.63;42.75
8320;BME280;4197;42.130;24.746;2022-10-22T13:29:00;100035.41;;;18.74;42.56
8320;BME280;4197;42.130;24.746;2022-10-22T13:31:31;100031.47;;;18.79;42.33
8320;BME280;4197;42.130;24.746;2022-10-22T13:34:05;100027.94;;;18.71;42.22